Albany Center, Vermont
Current Conditions -  °F | °C
As of 5:15 AM on Friday 24 Oct 2014 (Local Time) from KEFK Reporting Station
Drizzle Drizzle  
Wind Chill:   Ceiling: 700
Heat Index:   Visibility: 7mi
Dew Point:   Wind: 12mph
Humidity: 96%   Direction: 350°N
Pressure: 29.8"   Gusts: NA
Location:  44.8143°N, 72.284°W
Report Text: KEFK 240915Z AUTO 35010KT 7SM DZ OVC007 05/05 A2980 RMK AO2 T00530047
Loading
Personal Weather Stations






























Interactive Weather Map
Tropical Storm Tracking
New forecast layout! Learn more

10-Day Weather Forecast

Advertisements
Track Severe Weather on mobile